Vergennes, Illinois
Current Conditions -  °F | °C
As of 3:52 AM on Saturday 29 Nov 2014 (Local Time) from KMDH Reporting Station
Clear Clear  
Wind Chill: 38°   Ceiling: Unl
Heat Index: 46°   Visibility: 10mi
Dew Point: 33°   Wind: 20mph
Humidity: 61%   Direction: 200°SSW
Pressure: 29.92"   Gusts: 25mph
Location:  37.9°N, 89.34°W
Report Text: KMDH 290952Z AUTO 20017G22KT 10SM CLR 08/01 A2992 RMK AO2 SLP131 T00780006
Loading
Personal Weather Stations






























Interactive Weather Map New forecast layout! Learn more

10-Day Weather Forecast

Advertisements
Track Severe Weather on mobile